Weather observations for the past three days for
Elbert Mountain - Monument Pass
Imperial (Metric)
Date Time (mdt) Wind (mph) Vis. (mi.) Weather Sky Cond. Temperature (ºF) Relative Humidity Wind Chill (°F) Heat Index (°F) Pressure Precipitation (in)
Air Dwpt 6 hour altimeter (in) sea level (mb) 1 hr 3 hr 6 hr
Max. Min.
08 05:15 S 8 10.00 Fair CLR 33.8 32 93% 28 30.05 0.0
08 04:55 SW 5 10.00 Fair CLR 33.8 32 93% 30 30.05 0.0
08 04:35 Calm 10.00 Fair CLR 33.8 32 93% 30.06 0.0
08 04:15 Calm 10.00 Fair CLR 35.6 32 87% 30.06 0.0
08 03:55 E 3 10.00 Fair CLR 37.4 33.8 87% 30.05 0.0
08 03:35 NE 3 10.00 Fair CLR 35.6 32 87% 30.05 0.0
08 03:15 N 6 10.00 Fair CLR 35.6 32 87% 31 30.06 0.0
08 02:55 Calm 10.00 Fair CLR 35.6 32 87% 30.05 0.0
08 02:35 S 5 10.00 Fair CLR 37.4 33.8 87% 34 30.06 0.0
08 02:15 S 8 10.00 Partly Cloudy SCT090 SCT110 37.4 33.8 87% 32 30.06 0.0
08 01:55 E 5 10.00 Mostly Cloudy SCT090 BKN110 41 35.6 81% 38 30.08 0.0
08 01:35 E 6 10.00 Partly Cloudy SCT120 41 35.6 81% 38 30.08 0.0
08 01:15 NE 5 10.00 Fair CLR 41 33.8 76% 38 30.09 0.0
08 00:55 SE 5 10.00 Fair CLR 41 33.8 76% 38 30.08 0.0
08 00:35 E 3 10.00 Fair CLR 42.8 33.8 71% 30.08 0.0
08 00:15 E 6 10.00 Fair CLR 42.8 35.6 76% 40 30.08 0.0
07 23:55 NE 5 10.00 Partly Cloudy SCT085 44.6 33.8 66% 43 30.08 0.0
07 23:35 Calm 10.00 Mostly Cloudy BKN095 46.4 33.8 62% 30.08 0.0
07 23:15 E 5 10.00 Partly Cloudy SCT095 46.4 33.8 62% 45 30.07 0.0
07 22:55 SE 6 10.00 Fair CLR 46.4 35.6 66% 44 30.06 0.0
07 22:35 SE 5 10.00 Fair CLR 46.4 33.8 62% 45 30.07 0.0
07 22:15 SE 6 10.00 Partly Cloudy SCT110 48.2 33.8 58% 46 30.07 0.0
07 21:55 E 3 10.00 Overcast SCT070 BKN090 OVC110 50 33.8 54% 30.07 0.0
07 21:35 Calm 10.00 Overcast SCT080 OVC090 50 35.6 58% 30.09 0.0
07 21:15 NE 6 10.00 Overcast OVC090 51.8 33.8 50% 30.07 0.0
07 20:55 NW 3 10.00 Overcast OVC100 51.8 32 47% 30.05 0.0
07 20:35 Calm 10.00 Overcast OVC100 50 33.8 54% 30.04 0.0
07 20:15 W 3 10.00 Overcast OVC110 50 33.8 54% 30.04 0.0
07 19:35 Calm 10.00 Mostly Cloudy BKN110 53.6 32 44% 30.03 0.0
07 19:15 Calm 10.00 Mostly Cloudy BKN110 55.4 32 41% 30.02 0.0
07 18:55 NW 6 10.00 Overcast OVC110 57.2 30.2 36% 30.02 0.0
07 18:35 Calm 10.00 Overcast OVC110 55.4 32 41% 30.02 0.0
07 18:15 NW 5 10.00 Mostly Cloudy BKN110 57.2 28.4 33% 30.02 0.0
07 17:55 W 9 10.00 Fair CLR 59 30.2 34% 30.02 0.0
07 17:35 NW 12 10.00 Fair CLR 59 28.4 31% 30.02 0.0
07 17:15 NW 10 G 17 10.00 Fair CLR 59 28.4 31% 30.02 0.0
07 16:55 NW 10 10.00 Fair CLR 59 28.4 31% 30.02 0.0
07 16:35 W 12 10.00 Fair CLR 60.8 30.2 31% 30.03 0.0
07 16:15 NW 14 G 23 10.00 Fair CLR 60.8 30.2 31% 30.03 0.0
07 15:55 NW 15 G 23 10.00 Fair CLR 60.8 32 34% 30.03 0.0
07 15:35 NW 17 G 25 10.00 Fair CLR 60.8 30.2 31% 30.04 0.0
07 15:15 NW 9 G 23 10.00 Fair CLR 59 30.2 34% 30.05 0.0
07 14:55 NW 12 G 21 10.00 Fair CLR 59 28.4 31% 30.05 0.0
07 14:35 W 13 G 20 10.00 Fair CLR 60.8 30.2 31% 30.06 0.0
07 14:15 NW 16 G 21 10.00 Fair CLR 59 30.2 34% 30.07 0.0
07 13:35 W 12 10.00 Fair CLR 59 30.2 34% 30.08 0.0
07 13:15 W 14 10.00 Fair CLR 59 26.6 29% 30.09 0.0
07 12:55 W 9 10.00 Partly Cloudy SCT085 59 28.4 31% 30.09 0.0
07 12:35 W 7 10.00 Fair CLR 57.2 28.4 33% 30.09 0.0
07 12:15 W 9 10.00 Fair CLR 55.4 26.6 33% 30.09 0.0
07 11:55 W 8 10.00 Fair CLR 55.4 26.6 33% 30.1 0.0
07 11:15 SW 6 10.00 Fair CLR 55.4 28.4 36% 30.11 0.0
07 10:55 W 9 10.00 Fair CLR 55.4 26.6 33% 30.12 0.0
07 10:35 W 8 10.00 Fair CLR 55.4 30.2 38% 30.12 0.0
07 09:55 W 12 10.00 Fair CLR 50 30.2 47% 46 30.13 0.0
07 09:35 SW 12 10.00 Fair CLR 50 30.2 47% 46 30.13 0.0
07 09:15 SW 12 10.00 Fair CLR 48.2 30.2 50% 44 30.12 0.0
07 08:55 SW 12 10.00 Fair CLR 46.4 30.2 53% 42 30.12 0.0
07 08:35 SW 10 10.00 Fair CLR 44.6 26.6 49% 40 30.12 0.0
07 08:15 SW 13 10.00 Fair CLR 44.6 24.8 46% 39 30.12 0.0
07 07:55 SW 8 10.00 Fair CLR 42.8 26.6 53% 39 30.12 0.0
07 07:35 SW 8 10.00 Fair CLR 41 24.8 53% 36 30.12 0.0
07 07:15 SW 12 10.00 Fair CLR 37.4 23 56% 30 30.11 0.0
07 06:55 SW 12 10.00 Fair CLR 35.6 21.2 56% 28 30.1 0.0
07 06:35 SW 13 10.00 Fair CLR 33.8 21.2 60% 25 30.09 0.0
07 06:15 SW 12 10.00 Fair CLR 33.8 19.4 56% 26 30.09 0.0
07 05:55 SW 14 10.00 Fair CLR 33.8 19.4 56% 25 30.09 0.0
07 05:35 SW 13 10.00 Fair CLR 32 19.4 60% 23 30.09 0.0
07 05:15 SW 12 10.00 Fair CLR 32 19.4 60% 24 30.09 0.0
07 04:55 SW 12 10.00 Fair CLR 32 19.4 60% 24 30.09 0.0
07 04:35 SW 12 10.00 Fair CLR 32 19.4 60% 24 30.09 0.0
07 04:15 SW 12 10.00 Fair CLR 32 21.2 64% 24 30.09 0.0
07 03:55 SW 10 10.00 Fair CLR 32 21.2 64% 24 30.1 0.0
07 03:35 SW 12 10.00 Fair CLR 32 21.2 64% 24 30.1 0.0
07 03:15 SW 12 10.00 Fair CLR 32 21.2 64% 24 30.1 0.0
07 02:55 SW 12 10.00 Fair CLR 32 21.2 64% 24 30.11 0.0
07 02:35 SW 14 10.00 Fair CLR 32 23 69% 23 30.1 0.0
07 02:15 SW 13 10.00 Fair CLR 30.2 23 75% 21 30.11 0.0
07 01:55 SW 9 10.00 Fair CLR 30.2 23 75% 23 30.11 0.0
07 01:15 SW 9 10.00 Fair CLR 30.2 24.8 80% 23 30.12 0.0
07 00:55 SW 12 10.00 Fair CLR 30.2 26.6 86% 21 30.12 0.0
07 00:35 SW 12 10.00 Fair CLR 30.2 26.6 86% 21 30.12 0.0
07 00:15 SW 9 10.00 Fair CLR 28.4 26.6 93% 20 30.12 0.0
06 23:55 SW 9 10.00 Fair CLR 28.4 26.6 93% 20 30.12 0.0
06 23:35 SW 12 10.00 Fair CLR 30.2 28.4 93% 21 30.12 0.0
06 23:15 S 8 10.00 Fair CLR 30.2 28.4 93% 23 30.12 0.0
06 22:55 S 6 10.00 Fair CLR 30.2 28.4 93% 25 30.12 0.0
06 22:35 S 6 10.00 Fair CLR 30.2 28.4 93% 25 30.12 0.0
06 22:15 S 10 10.00 Fair CLR 30.2 28.4 93% 22 30.11 0.0
06 21:55 S 10 10.00 Fair CLR 30.2 28.4 93% 22 30.12 0.0
06 21:35 S 9 10.00 Fair CLR 30.2 28.4 93% 23 30.11 0.0
06 21:15 S 10 10.00 Fair CLR 32 28.4 87% 24 30.11 0.0
06 20:55 S 10 10.00 Fair CLR 32 28.4 87% 24 30.11 0.0
06 20:35 S 10 10.00 Fair CLR 32 28.4 87% 24 30.1 0.0
06 20:15 S 9 10.00 Fair CLR 32 28.4 87% 25 30.1 0.0
06 19:55 S 9 10.00 Fair CLR 32 28.4 87% 25 30.1 0.0
06 19:35 S 9 10.00 Fair CLR 33.8 30.2 87% 27 30.1 0.0
06 19:15 S 7 10.00 Fair CLR 35.6 28.4 75% 31 30.1 0.0
06 18:55 S 8 10.00 Fair CLR 35.6 28.4 75% 30 30.09 0.0
06 18:35 SW 7 10.00 Fair CLR 35.6 28.4 75% 31 30.09 0.0
06 18:15 SW 7 10.00 Fair CLR 35.6 28.4 75% 31 30.09 0.0
06 17:55 Calm 10.00 Partly Cloudy SCT060 33.8 28.4 81% 30.1 0.0
06 17:35 Calm 10.00 Mostly Cloudy SCT060 BKN070 32 26.6 80% 30.1 0.0
06 17:15 Calm 10.00 Overcast BKN075 OVC080 32 26.6 80% 30.1 0.0
06 16:55 Calm 10.00 Overcast OVC085 32 26.6 80% 30.1 0.0
06 16:35 Calm 10.00 Mostly Cloudy SCT015 BKN085 32 26.6 80% 30.1 0.0
06 16:15 Calm 10.00 Mostly Cloudy BKN013 32 24.8 75% 30.11 0.0
06 15:55 NW 3 10.00 Overcast OVC011 32 26.6 80% 30.11 0.0
06 15:35 Calm 10.00 Overcast OVC011 32 26.6 80% 30.12 0.0
06 15:15 N 3 10.00 Overcast OVC011 30.2 24.8 80% 30.12 0.0
06 14:55 NE 6 10.00 Overcast OVC011 32 26.6 80% 27 30.12 0.0
06 14:35 N 3 10.00 Overcast BKN009 OVC015 32 26.6 80% 30.13 0.0
06 14:15 N 6 10.00 Overcast OVC007 32 26.6 80% 27 30.13 0.0
06 13:55 N 8 10.00 Overcast OVC007 32 26.6 80% 25 30.12 0.0
06 13:35 N 8 10.00 Overcast OVC007 30.2 26.6 86% 23 30.12 0.0
06 13:15 NE 9 7.00 Overcast BKN007 OVC012 30.2 26.6 86% 23 30.12 0.0
06 12:55 N 8 7.00 Overcast BKN005 OVC010 30.2 26.6 86% 23 30.12 0.0
06 12:35 N 9 5.00 Light Snow BKN005 OVC018 30.2 28.4 93% 23 30.13 0.0
06 12:15 N 7 3.00 Light Snow BKN005 BKN011 OVC016 30.2 26.6 86% 24 30.12 0.0
06 11:55 N 8 5.00 Fog/Mist BKN005 BKN008 OVC015 30.2 26.6 86% 23 30.12 0.0
06 11:35 N 7 2.50 Light Snow BKN005 BKN010 OVC013 30.2 26.6 86% 24 30.12 0.0
06 11:15 N 6 1.25 Light Snow BKN005 BKN009 OVC018 30.2 26.6 86% 25 30.11 0.0
06 10:55 NE 6 1.75 Light Snow OVC003 30.2 26.6 86% 25 30.11 0.0
06 10:35 N 7 1.25 Light Snow OVC005 28.4 26.6 93% 22 30.1 0.0
06 10:15 N 7 1.75 Light Snow BKN005 OVC013 30.2 26.6 86% 24 30.09 0.0
06 09:55 N 8 1.50 Light Snow OVC005 28.4 26.6 93% 21 30.1 0.0 0.01
06 09:35 N 6 1.00 Light Snow OVC003 28.4 26.6 93% 23 30.09 0.0 0.01
06 09:15 N 7 1.25 Light Snow OVC003 28.4 26.6 93% 22 30.08 0.0
06 08:55 N 5 1.50 Light Snow BKN003 OVC010 28.4 26.6 93% 24 30.08 0.0 0.01
06 08:35 N 7 2.50 Light Snow BKN003 OVC014 28.4 26.6 93% 22 30.08 0.0
06 08:15 N 6 2.00 Light Snow OVC003 26.6 26.6 100% 21 30.07 0.0
06 07:55 N 5 10.00 Overcast BKN005 OVC013 26.6 26.6 100% 22 30.07 0.0
06 07:35 NE 6 10.00 Overcast BKN005 OVC013 26.6 26.6 100% 21 30.07 0.0
06 07:15 NE 6 3.00 Light Snow OVC005 26.6 26.6 100% 21 30.05 0.0
06 06:55 NE 7 1.25 Light Snow OVC005 26.6 26.6 100% 20 30.05 0.0
06 06:35 NE 8 0.75 Light Snow OVC002 26.6 26.6 100% 19 30.04 0.0
06 06:15 NE 9 0.50 Freezing Fog OVC002 26.6 26.6 100% 18 30.03 0.0
06 05:55 NE 10 4.00 Fog/Mist OVC002 26.6 26.6 100% 18 30.03 0.0
06 05:35 NE 12 10.00 Overcast OVC004 26.6 26.6 100% 17 30.02 0.0
06 05:15 NE 9 10.00 Overcast OVC004 26.6 26.6 100% 18 30.03 0.0
06 04:55 N 8 5.00 Light Snow OVC004 26.6 26.6 100% 19 30.02 0.0 0.01
06 04:35 N 8 3.00 Light Snow OVC004 26.6 26.6 100% 19 30.02 0.0 0.01
06 04:15 N 7 5.00 Light Snow OVC004 26.6 26.6 100% 20 30.01 0.0 0.01
06 03:55 N 7 3.00 Light Snow OVC004 26.6 26.6 100% 20 30.01 0.0
06 03:35 N 8 3.00 Light Snow OVC004 26.6 26.6 100% 19 30.01 0.0
06 03:15 N 8 3.00 Light Snow OVC004 28.4 26.6 93% 21 30.01 0.0
06 02:55 N 7 5.00 Light Snow OVC004 28.4 26.6 93% 22 30.01 0.0
06 02:35 NW 10 10.00 Overcast BKN004 BKN009 OVC029 28.4 26.6 93% 20 30.02 0.0
06 02:15 N 9 4.00 Light Snow BKN002 BKN010 OVC029 28.4 26.6 93% 20 30.01 0.0
06 01:55 N 7 2.50 Light Snow OVC002 28.4 28.4 100% 22 30.01 0.0 0.01
06 01:35 NW 8 7.00 Light Snow BKN002 OVC007 28.4 28.4 100% 21 30.01 0.0 0.01
06 01:15 NW 9 5.00 Fog/Mist OVC002 28.4 28.4 100% 20 30.01 0.0
06 00:55 NW 8 5.00 Light Snow OVC004 28.4 28.4 100% 21 30.01 0.0 0.02
06 00:35 N 5 1.75 Light Snow OVC004 28.4 28.4 100% 24 30.01 0.0 0.01
06 00:15 N 7 1.50 Light Snow BKN004 OVC011 28.4 28.4 100% 22 30.01 0.0
05 23:55 NW 8 1.00 Snow BKN004 OVC009 28.4 28.4 100% 21 30 0.0 0.01
05 23:15 N 6 3.00 Light Snow BKN003 BKN010 OVC025 28.4 28.4 100% 23 29.99 0.0
05 22:55 NW 8 1.25 Light Snow OVC003 28.4 28.4 100% 21 30 0.0 0.01
05 22:35 NW 8 1.25 Light Snow OVC003 28.4 28.4 100% 21 29.99 0.0 0.01
05 22:15 NW 10 2.00 Light Snow OVC003 28.4 28.4 100% 20 29.99 0.0 0.01
05 21:55 NW 12 2.00 Light Snow OVC003 28.4 28.4 100% 19 29.99 0.0
05 21:35 NW 10 2.50 Light Snow OVC003 28.4 28.4 100% 20 29.99 0.0
05 21:15 NW 12 1.75 Light Snow OVC003 28.4 28.4 100% 19 29.98 0.0
05 20:55 NW 9 1.25 Light Snow OVC005 30.2 28.4 93% 23 29.96 0.0 0.01
05 20:35 NW 10 1.75 Light Snow OVC003 30.2 28.4 93% 22 29.95 0.0
05 20:15 NW 13 4.00 Light Snow OVC003 30.2 28.4 93% 21 29.94 0.0
05 19:55 W 13 0.75 Light Snow OVC003 30.2 28.4 93% 21 29.93 0.0 0.01
05 19:35 NW 13 0.50 Light Snow OVC003 30.2 30.2 100% 21 29.93 0.0 0.01
05 19:15 NW 10 1.00 Light Snow OVC003 30.2 30.2 100% 22 29.92 0.0 0.01
05 18:55 NW 13 0.25 Heavy Snow OVC003 32 32 100% 23 29.91 0.0 0.02
05 18:35 Calm 0.25 Light Snow OVC003 32 32 100% 29.91 0.0 0.02
05 18:15 S 3 1.25 Light Snow BKN003 BKN008 OVC015 32 32 100% 29.91 0.0 0.01
05 17:55 SW 8 1.00 Light Snow OVC005 32 32 100% 25 29.91 0.0 0.02
05 17:35 S 7 2.00 Drizzle BKN005 OVC013 33.8 32 93% 28 29.9 0.0
05 17:15 SE 8 4.00 Light Drizzle BKN007 OVC012 33.8 32 93% 28 29.9 0.0
05 16:55 SE 9 4.00 Light Rain OVC007 33.8 32 93% 27 29.89 0.0
05 16:35 SE 10 7.00 Overcast BKN007 OVC011 33.8 32 93% 26 29.88 0.0
05 16:15 SE 12 10.00 Overcast BKN008 OVC011 33.8 33.8 100% 26 29.88 0.0
05 15:55 SE 12 7.00 Overcast BKN006 OVC011 33.8 33.8 100% 26 29.88 0.0
05 15:35 SE 12 4.00 Fog/Mist OVC006 33.8 33.8 100% 26 29.89 0.0
05 15:15 SE 14 5.00 Fog/Mist OVC006 35.6 33.8 93% 27 29.9 0.0
05 14:55 SE 10 5.00 Fog/Mist BKN008 OVC013 35.6 33.8 93% 29 29.9 0.0
05 14:35 SE 10 5.00 Fog/Mist BKN008 OVC013 35.6 33.8 93% 29 29.91 0.0
05 14:15 SE 12 3.00 Light Drizzle BKN006 OVC013 35.6 33.8 93% 28 29.91 0.0
05 13:35 SE 12 5.00 Fog/Mist BKN008 OVC017 35.6 33.8 93% 28 29.92 0.0 0.01
05 13:15 SE 8 4.00 Light Snow OVC006 33.8 32 93% 28 29.93 0.0 0.01
05 12:55 E 8 3.00 Light Snow OVC004 33.8 33.8 100% 28 29.93 0.0 0.01
05 12:35 E 10 1.75 Light Snow OVC004 33.8 32 93% 26 29.93 0.0
05 12:15 E 7 1.75 Light Rain OVC004 32 32 100% 26 29.95 0.0
05 11:55 NE 9 3.00 Fog/Mist OVC004 33.8 32 93% 27 29.95 0.0 0.01
05 11:35 NE 8 2.50 Light Drizzle OVC004 32 32 100% 25 29.95 0.0 0.01
05 11:15 NE 7 4.00 Fog/Mist OVC004 32 32 100% 26 29.97 0.0
05 10:55 N 7 4.00 Light Drizzle OVC004 32 32 100% 26 29.97 0.0
05 10:35 N 7 4.00 Light Drizzle OVC002 32 32 100% 26 29.97 0.0
05 10:15 N 8 4.00 Light Drizzle OVC002 32 32 100% 25 29.97 0.0
05 09:35 N 8 0.25 Fog OVC002 32 32 100% 25 29.97 0.0
05 09:15 N 9 0.15 Fog OVC002 32 32 100% 25 29.97 0.0
05 08:55 N 8 0.15 Fog OVC002 32 32 100% 25 29.97 0.0
05 08:35 NW 10 0.25 Fog OVC002 32 32 100% 24 29.97 0.0
05 08:15 NW 12 0.15 Fog OVC002 33.8 33.8 100% 26 29.97 0.0
05 07:55 W 10 0.25 Fog OVC002 33.8 33.8 100% 26 29.96 0.0
05 07:35 W 14 1.00 Fog/Mist OVC002 33.8 33.8 100% 25 29.96 0.0
05 07:15 W 16 5.00 Fog/Mist OVC002 33.8 33.8 100% 24 29.96 0.0
05 06:55 W 14 1.50 Drizzle OVC002 33.8 33.8 100% 25 29.95 0.0 0.02
05 06:35 W 14 0.75 Drizzle OVC002 35.6 35.6 100% 27 29.94 0.0 0.02
05 06:15 W 14 0.50 Light Rain OVC002 35.6 35.6 100% 27 29.93 0.0 0.01
05 05:55 W 14 0.15 Fog OVC002 37.4 37.4 100% 30 29.93 0.0 0.01
05 05:35 W 15 1.50 Light Rain SCT002 OVC017 41 37.4 87% 34 29.92 0.0
Date Time (mdt) Wind (mph) Vis. (mi.) Weather Sky Cond. Air Dwpt Max. Min. Relative Humidity Wind Chill (°F) Heat Index (°F) altimeter (in) sea level (mb) 1 hr 3 hr 6 hr
6 hour
Temperature (ºF) Pressure Precipitation (in)